sensor_id;sensor_type;location;lat;lon;timestamp;P1;durP1;ratioP1;P2;durP2;ratioP2
28483;SDS011;15704;48.834;8.736;2024-01-30T00:01:06;2.90;;;1.73;;
28483;SDS011;15704;48.834;8.736;2024-01-30T00:03:35;2.45;;;1.60;;
28483;SDS011;15704;48.834;8.736;2024-01-30T00:06:05;3.63;;;1.70;;
28483;SDS011;15704;48.834;8.736;2024-01-30T00:08:32;1.92;;;1.52;;
28483;SDS011;15704;48.834;8.736;2024-01-30T00:10:59;1.70;;;1.40;;
28483;SDS011;15704;48.834;8.736;2024-01-30T00:13:27;1.67;;;1.27;;
28483;SDS011;15704;48.834;8.736;2024-01-30T00:15:54;2.00;;;1.50;;
28483;SDS011;15704;48.834;8.736;2024-01-30T00:18:20;2.15;;;1.42;;
28483;SDS011;15704;48.834;8.736;2024-01-30T00:20:47;2.22;;;1.40;;
28483;SDS011;15704;48.834;8.736;2024-01-30T00:23:14;1.98;;;1.50;;
28483;SDS011;15704;48.834;8.736;2024-01-30T00:25:41;2.25;;;1.70;;
28483;SDS011;15704;48.834;8.736;2024-01-30T00:28:08;1.75;;;1.48;;
28483;SDS011;15704;48.834;8.736;2024-01-30T00:30:35;1.60;;;1.30;;
28483;SDS011;15704;48.834;8.736;2024-01-30T00:33:02;1.95;;;1.30;;
28483;SDS011;15704;48.834;8.736;2024-01-30T00:35:29;2.55;;;1.75;;
28483;SDS011;15704;48.834;8.736;2024-01-30T00:37:55;2.40;;;1.65;;
28483;SDS011;15704;48.834;8.736;2024-01-30T00:40:25;1.95;;;1.60;;
28483;SDS011;15704;48.834;8.736;2024-01-30T00:42:52;3.00;;;1.80;;
28483;SDS011;15704;48.834;8.736;2024-01-30T00:45:19;1.80;;;1.30;;
28483;SDS011;15704;48.834;8.736;2024-01-30T00:47:46;2.08;;;1.50;;
28483;SDS011;15704;48.834;8.736;2024-01-30T00:50:12;1.98;;;1.70;;
28483;SDS011;15704;48.834;8.736;2024-01-30T00:52:39;2.20;;;1.60;;
28483;SDS011;15704;48.834;8.736;2024-01-30T00:55:08;1.52;;;1.33;;
28483;SDS011;15704;48.834;8.736;2024-01-30T00:57:34;2.20;;;1.45;;
28483;SDS011;15704;48.834;8.736;2024-01-30T01:00:02;1.73;;;1.50;;
28483;SDS011;15704;48.834;8.736;2024-01-30T01:02:29;2.10;;;1.50;;
28483;SDS011;15704;48.834;8.736;2024-01-30T01:04:56;1.88;;;1.45;;
28483;SDS011;15704;48.834;8.736;2024-01-30T01:07:23;2.15;;;1.60;;
28483;SDS011;15704;48.834;8.736;2024-01-30T01:09:50;2.10;;;1.52;;
28483;SDS011;15704;48.834;8.736;2024-01-30T01:12:17;1.63;;;1.27;;
28483;SDS011;15704;48.834;8.736;2024-01-30T01:14:43;2.67;;;1.50;;
28483;SDS011;15704;48.834;8.736;2024-01-30T01:17:10;1.85;;;1.40;;
28483;SDS011;15704;48.834;8.736;2024-01-30T01:19:37;1.77;;;1.42;;
28483;SDS011;15704;48.834;8.736;2024-01-30T01:22:04;1.85;;;1.52;;
28483;SDS011;15704;48.834;8.736;2024-01-30T01:24:31;1.85;;;1.42;;
28483;SDS011;15704;48.834;8.736;2024-01-30T01:26:58;1.92;;;1.40;;
28483;SDS011;15704;48.834;8.736;2024-01-30T01:29:25;2.10;;;1.63;;
28483;SDS011;15704;48.834;8.736;2024-01-30T01:31:55;2.70;;;1.52;;
28483;SDS011;15704;48.834;8.736;2024-01-30T01:34:23;2.25;;;1.70;;
28483;SDS011;15704;48.834;8.736;2024-01-30T01:36:55;2.55;;;1.63;;
28483;SDS011;15704;48.834;8.736;2024-01-30T01:39:22;2.88;;;1.70;;
28483;SDS011;15704;48.834;8.736;2024-01-30T01:41:51;2.53;;;1.70;;
28483;SDS011;15704;48.834;8.736;2024-01-30T01:44:21;1.60;;;1.35;;
28483;SDS011;15704;48.834;8.736;2024-01-30T01:46:51;1.88;;;1.35;;
28483;SDS011;15704;48.834;8.736;2024-01-30T01:49:19;2.10;;;1.60;;
28483;SDS011;15704;48.834;8.736;2024-01-30T01:51:49;2.63;;;1.70;;
28483;SDS011;15704;48.834;8.736;2024-01-30T01:54:20;1.88;;;1.30;;
28483;SDS011;15704;48.834;8.736;2024-01-30T01:56:46;1.60;;;1.50;;
28483;SDS011;15704;48.834;8.736;2024-01-30T01:59:16;2.17;;;1.58;;
28483;SDS011;15704;48.834;8.736;2024-01-30T02:01:44;2.85;;;1.70;;
28483;SDS011;15704;48.834;8.736;2024-01-30T02:04:12;2.38;;;1.55;;
28483;SDS011;15704;48.834;8.736;2024-01-30T02:06:39;1.83;;;1.38;;
28483;SDS011;15704;48.834;8.736;2024-01-30T02:09:06;1.80;;;1.30;;
28483;SDS011;15704;48.834;8.736;2024-01-30T02:11:33;1.30;;;1.20;;
28483;SDS011;15704;48.834;8.736;2024-01-30T02:14:03;1.70;;;1.40;;
28483;SDS011;15704;48.834;8.736;2024-01-30T02:16:31;2.15;;;1.60;;
28483;SDS011;15704;48.834;8.736;2024-01-30T02:18:58;1.30;;;1.20;;
28483;SDS011;15704;48.834;8.736;2024-01-30T02:21:25;2.13;;;1.40;;
28483;SDS011;15704;48.834;8.736;2024-01-30T02:23:52;1.50;;;1.20;;
28483;SDS011;15704;48.834;8.736;2024-01-30T02:26:20;2.10;;;1.50;;
28483;SDS011;15704;48.834;8.736;2024-01-30T02:28:47;2.53;;;1.42;;
28483;SDS011;15704;48.834;8.736;2024-01-30T02:31:14;1.83;;;1.58;;
28483;SDS011;15704;48.834;8.736;2024-01-30T02:33:41;1.45;;;1.25;;
28483;SDS011;15704;48.834;8.736;2024-01-30T02:36:07;1.75;;;1.40;;
28483;SDS011;15704;48.834;8.736;2024-01-30T02:38:34;1.67;;;1.20;;
28483;SDS011;15704;48.834;8.736;2024-01-30T02:41:01;1.60;;;1.30;;
28483;SDS011;15704;48.834;8.736;2024-01-30T02:43:28;2.10;;;1.50;;
28483;SDS011;15704;48.834;8.736;2024-01-30T02:45:54;1.60;;;1.40;;
28483;SDS011;15704;48.834;8.736;2024-01-30T02:48:21;1.73;;;1.25;;
28483;SDS011;15704;48.834;8.736;2024-01-30T02:50:51;1.80;;;1.48;;
28483;SDS011;15704;48.834;8.736;2024-01-30T02:53:17;1.60;;;1.40;;
28483;SDS011;15704;48.834;8.736;2024-01-30T02:55:44;2.10;;;1.60;;
28483;SDS011;15704;48.834;8.736;2024-01-30T02:58:11;1.75;;;1.35;;
28483;SDS011;15704;48.834;8.736;2024-01-30T03:00:38;1.85;;;1.30;;
28483;SDS011;15704;48.834;8.736;2024-01-30T03:03:04;1.25;;;1.02;;
28483;SDS011;15704;48.834;8.736;2024-01-30T03:05:31;1.23;;;1.13;;
28483;SDS011;15704;48.834;8.736;2024-01-30T03:07:58;1.38;;;1.15;;
28483;SDS011;15704;48.834;8.736;2024-01-30T03:10:25;1.67;;;1.30;;
28483;SDS011;15704;48.834;8.736;2024-01-30T03:12:51;1.88;;;1.33;;
28483;SDS011;15704;48.834;8.736;2024-01-30T03:15:18;1.77;;;1.40;;
28483;SDS011;15704;48.834;8.736;2024-01-30T03:17:45;1.52;;;1.30;;
28483;SDS011;15704;48.834;8.736;2024-01-30T03:20:12;1.38;;;1.15;;
28483;SDS011;15704;48.834;8.736;2024-01-30T03:22:39;1.80;;;1.13;;
28483;SDS011;15704;48.834;8.736;2024-01-30T03:25:08;1.60;;;1.30;;
28483;SDS011;15704;48.834;8.736;2024-01-30T03:27:35;1.42;;;1.33;;
28483;SDS011;15704;48.834;8.736;2024-01-30T03:30:02;1.65;;;1.30;;
28483;SDS011;15704;48.834;8.736;2024-01-30T03:32:29;1.90;;;1.30;;
28483;SDS011;15704;48.834;8.736;2024-01-30T03:34:56;1.30;;;1.17;;
28483;SDS011;15704;48.834;8.736;2024-01-30T03:37:24;1.83;;;1.20;;
28483;SDS011;15704;48.834;8.736;2024-01-30T03:39:51;1.50;;;1.30;;
28483;SDS011;15704;48.834;8.736;2024-01-30T03:42:20;1.25;;;1.13;;
28483;SDS011;15704;48.834;8.736;2024-01-30T03:44:48;1.60;;;1.10;;
28483;SDS011;15704;48.834;8.736;2024-01-30T03:47:18;1.63;;;1.33;;
28483;SDS011;15704;48.834;8.736;2024-01-30T03:49:45;1.25;;;1.15;;
28483;SDS011;15704;48.834;8.736;2024-01-30T03:52:12;1.50;;;1.30;;
28483;SDS011;15704;48.834;8.736;2024-01-30T03:54:43;1.77;;;1.45;;
28483;SDS011;15704;48.834;8.736;2024-01-30T03:57:09;2.30;;;1.40;;
28483;SDS011;15704;48.834;8.736;2024-01-30T03:59:37;2.45;;;1.38;;
28483;SDS011;15704;48.834;8.736;2024-01-30T04:02:04;1.70;;;1.20;;
28483;SDS011;15704;48.834;8.736;2024-01-30T04:04:31;1.45;;;1.30;;
28483;SDS011;15704;48.834;8.736;2024-01-30T04:06:58;1.92;;;1.45;;
28483;SDS011;15704;48.834;8.736;2024-01-30T04:09:24;1.65;;;1.42;;
28483;SDS011;15704;48.834;8.736;2024-01-30T04:11:52;2.20;;;1.40;;
28483;SDS011;15704;48.834;8.736;2024-01-30T04:14:19;2.08;;;1.45;;
28483;SDS011;15704;48.834;8.736;2024-01-30T04:16:46;1.85;;;1.60;;
28483;SDS011;15704;48.834;8.736;2024-01-30T04:19:13;1.90;;;1.60;;
28483;SDS011;15704;48.834;8.736;2024-01-30T04:21:39;1.40;;;1.30;;
28483;SDS011;15704;48.834;8.736;2024-01-30T04:24:07;1.85;;;1.27;;
28483;SDS011;15704;48.834;8.736;2024-01-30T04:26:33;1.73;;;1.38;;
28483;SDS011;15704;48.834;8.736;2024-01-30T04:29:00;2.00;;;1.70;;
28483;SDS011;15704;48.834;8.736;2024-01-30T04:31:27;1.58;;;1.35;;
28483;SDS011;15704;48.834;8.736;2024-01-30T04:33:53;2.03;;;1.50;;
28483;SDS011;15704;48.834;8.736;2024-01-30T04:36:20;1.73;;;1.20;;
28483;SDS011;15704;48.834;8.736;2024-01-30T04:38:47;1.85;;;1.30;;
28483;SDS011;15704;48.834;8.736;2024-01-30T04:41:14;1.73;;;1.60;;
28483;SDS011;15704;48.834;8.736;2024-01-30T04:43:40;1.50;;;1.20;;
28483;SDS011;15704;48.834;8.736;2024-01-30T04:46:07;1.73;;;1.40;;
28483;SDS011;15704;48.834;8.736;2024-01-30T04:48:34;2.38;;;1.38;;
28483;SDS011;15704;48.834;8.736;2024-01-30T04:51:01;2.00;;;1.65;;
28483;SDS011;15704;48.834;8.736;2024-01-30T04:53:30;1.85;;;1.50;;
28483;SDS011;15704;48.834;8.736;2024-01-30T04:55:57;1.80;;;1.40;;
28483;SDS011;15704;48.834;8.736;2024-01-30T04:58:24;1.67;;;1.42;;
28483;SDS011;15704;48.834;8.736;2024-01-30T05:00:51;1.58;;;1.27;;
28483;SDS011;15704;48.834;8.736;2024-01-30T05:03:21;1.42;;;1.30;;
28483;SDS011;15704;48.834;8.736;2024-01-30T05:05:49;1.60;;;1.33;;
28483;SDS011;15704;48.834;8.736;2024-01-30T05:08:16;1.58;;;1.33;;
28483;SDS011;15704;48.834;8.736;2024-01-30T05:10:43;2.90;;;1.73;;
28483;SDS011;15704;48.834;8.736;2024-01-30T05:13:10;1.83;;;1.45;;
28483;SDS011;15704;48.834;8.736;2024-01-30T05:15:40;1.40;;;1.20;;
28483;SDS011;15704;48.834;8.736;2024-01-30T05:18:06;1.45;;;1.27;;
28483;SDS011;15704;48.834;8.736;2024-01-30T05:20:36;2.28;;;1.50;;
28483;SDS011;15704;48.834;8.736;2024-01-30T05:23:02;2.83;;;1.60;;
28483;SDS011;15704;48.834;8.736;2024-01-30T05:25:32;1.50;;;1.40;;
28483;SDS011;15704;48.834;8.736;2024-01-30T05:27:58;1.80;;;1.35;;
28483;SDS011;15704;48.834;8.736;2024-01-30T05:30:25;1.83;;;1.33;;
28483;SDS011;15704;48.834;8.736;2024-01-30T05:32:52;1.85;;;1.30;;
28483;SDS011;15704;48.834;8.736;2024-01-30T05:35:19;2.10;;;1.30;;
28483;SDS011;15704;48.834;8.736;2024-01-30T05:37:50;1.15;;;1.05;;
28483;SDS011;15704;48.834;8.736;2024-01-30T05:40:16;2.05;;;1.50;;
28483;SDS011;15704;48.834;8.736;2024-01-30T05:42:43;2.33;;;1.40;;
28483;SDS011;15704;48.834;8.736;2024-01-30T05:45:10;1.45;;;1.35;;
28483;SDS011;15704;48.834;8.736;2024-01-30T05:47:37;2.60;;;1.48;;
28483;SDS011;15704;48.834;8.736;2024-01-30T05:50:04;1.77;;;1.33;;
28483;SDS011;15704;48.834;8.736;2024-01-30T05:52:31;1.73;;;1.40;;
28483;SDS011;15704;48.834;8.736;2024-01-30T05:54:58;1.92;;;1.50;;
28483;SDS011;15704;48.834;8.736;2024-01-30T05:57:25;1.83;;;1.52;;
28483;SDS011;15704;48.834;8.736;2024-01-30T05:59:51;1.60;;;1.40;;
28483;SDS011;15704;48.834;8.736;2024-01-30T06:02:18;2.15;;;1.70;;
28483;SDS011;15704;48.834;8.736;2024-01-30T06:04:45;1.60;;;1.48;;
28483;SDS011;15704;48.834;8.736;2024-01-30T06:07:12;2.25;;;1.58;;
28483;SDS011;15704;48.834;8.736;2024-01-30T06:09:39;1.50;;;1.25;;
28483;SDS011;15704;48.834;8.736;2024-01-30T06:12:07;1.20;;;1.10;;
28483;SDS011;15704;48.834;8.736;2024-01-30T06:14:34;2.08;;;1.70;;
28483;SDS011;15704;48.834;8.736;2024-01-30T06:17:00;1.63;;;1.30;;
28483;SDS011;15704;48.834;8.736;2024-01-30T06:19:27;1.80;;;1.45;;
28483;SDS011;15704;48.834;8.736;2024-01-30T06:21:54;2.05;;;1.52;;
28483;SDS011;15704;48.834;8.736;2024-01-30T06:24:21;1.85;;;1.40;;
28483;SDS011;15704;48.834;8.736;2024-01-30T06:26:48;1.83;;;1.40;;
28483;SDS011;15704;48.834;8.736;2024-01-30T06:29:15;1.85;;;1.60;;
28483;SDS011;15704;48.834;8.736;2024-01-30T06:31:45;1.80;;;1.60;;
28483;SDS011;15704;48.834;8.736;2024-01-30T06:34:12;1.80;;;1.50;;
28483;SDS011;15704;48.834;8.736;2024-01-30T06:36:39;2.13;;;1.35;;
28483;SDS011;15704;48.834;8.736;2024-01-30T06:39:06;1.58;;;1.33;;
28483;SDS011;15704;48.834;8.736;2024-01-30T06:41:33;1.55;;;1.30;;
28483;SDS011;15704;48.834;8.736;2024-01-30T06:44:03;1.70;;;1.45;;
28483;SDS011;15704;48.834;8.736;2024-01-30T06:46:32;1.98;;;1.42;;
28483;SDS011;15704;48.834;8.736;2024-01-30T06:48:59;1.88;;;1.55;;
28483;SDS011;15704;48.834;8.736;2024-01-30T06:51:28;2.03;;;1.48;;
28483;SDS011;15704;48.834;8.736;2024-01-30T06:53:55;2.10;;;1.52;;
28483;SDS011;15704;48.834;8.736;2024-01-30T06:56:22;1.75;;;1.42;;
28483;SDS011;15704;48.834;8.736;2024-01-30T06:58:49;1.98;;;1.40;;
28483;SDS011;15704;48.834;8.736;2024-01-30T07:01:16;3.28;;;1.40;;
28483;SDS011;15704;48.834;8.736;2024-01-30T07:03:43;1.92;;;1.38;;
28483;SDS011;15704;48.834;8.736;2024-01-30T07:06:11;2.13;;;1.40;;
28483;SDS011;15704;48.834;8.736;2024-01-30T07:08:38;2.38;;;1.60;;
28483;SDS011;15704;48.834;8.736;2024-01-30T07:11:05;1.77;;;1.50;;
28483;SDS011;15704;48.834;8.736;2024-01-30T07:13:34;1.50;;;1.40;;
28483;SDS011;15704;48.834;8.736;2024-01-30T07:16:00;1.27;;;1.17;;
28483;SDS011;15704;48.834;8.736;2024-01-30T07:18:27;2.35;;;1.60;;
28483;SDS011;15704;48.834;8.736;2024-01-30T07:20:54;1.95;;;1.30;;
28483;SDS011;15704;48.834;8.736;2024-01-30T07:23:21;1.85;;;1.50;;
28483;SDS011;15704;48.834;8.736;2024-01-30T07:25:47;2.08;;;1.38;;
28483;SDS011;15704;48.834;8.736;2024-01-30T07:28:18;1.80;;;1.50;;
28483;SDS011;15704;48.834;8.736;2024-01-30T07:30:45;1.45;;;1.35;;
28483;SDS011;15704;48.834;8.736;2024-01-30T07:33:12;1.98;;;1.30;;
28483;SDS011;15704;48.834;8.736;2024-01-30T07:35:39;1.38;;;1.27;;
28483;SDS011;15704;48.834;8.736;2024-01-30T07:38:06;2.30;;;1.70;;
28483;SDS011;15704;48.834;8.736;2024-01-30T07:40:33;2.25;;;1.52;;
28483;SDS011;15704;48.834;8.736;2024-01-30T07:42:59;1.73;;;1.30;;
28483;SDS011;15704;48.834;8.736;2024-01-30T07:45:30;2.13;;;1.60;;
28483;SDS011;15704;48.834;8.736;2024-01-30T07:47:59;2.00;;;1.40;;
28483;SDS011;15704;48.834;8.736;2024-01-30T07:50:28;1.95;;;1.40;;
28483;SDS011;15704;48.834;8.736;2024-01-30T07:52:59;1.50;;;1.20;;
28483;SDS011;15704;48.834;8.736;2024-01-30T07:55:26;1.63;;;1.23;;
28483;SDS011;15704;48.834;8.736;2024-01-30T07:57:58;1.45;;;1.30;;
28483;SDS011;15704;48.834;8.736;2024-01-30T08:00:25;2.53;;;1.23;;
28483;SDS011;15704;48.834;8.736;2024-01-30T08:02:53;1.63;;;1.15;;
28483;SDS011;15704;48.834;8.736;2024-01-30T08:05:23;4.03;;;1.50;;
28483;SDS011;15704;48.834;8.736;2024-01-30T08:07:50;1.80;;;1.40;;
28483;SDS011;15704;48.834;8.736;2024-01-30T08:10:18;1.83;;;1.38;;
28483;SDS011;15704;48.834;8.736;2024-01-30T08:12:45;2.05;;;1.20;;
28483;SDS011;15704;48.834;8.736;2024-01-30T08:15:12;1.60;;;1.27;;
28483;SDS011;15704;48.834;8.736;2024-01-30T08:17:39;1.38;;;1.27;;
28483;SDS011;15704;48.834;8.736;2024-01-30T08:20:08;1.80;;;1.30;;
28483;SDS011;15704;48.834;8.736;2024-01-30T08:22:38;1.40;;;1.05;;
28483;SDS011;15704;48.834;8.736;2024-01-30T08:25:08;1.55;;;1.20;;
28483;SDS011;15704;48.834;8.736;2024-01-30T08:27:36;2.08;;;1.45;;
28483;SDS011;15704;48.834;8.736;2024-01-30T08:30:07;2.13;;;1.70;;
28483;SDS011;15704;48.834;8.736;2024-01-30T08:32:35;1.88;;;1.55;;
28483;SDS011;15704;48.834;8.736;2024-01-30T08:35:02;1.48;;;1.20;;
28483;SDS011;15704;48.834;8.736;2024-01-30T08:37:33;1.40;;;1.15;;
28483;SDS011;15704;48.834;8.736;2024-01-30T08:39:59;2.10;;;1.40;;
28483;SDS011;15704;48.834;8.736;2024-01-30T08:42:29;1.55;;;1.20;;
28483;SDS011;15704;48.834;8.736;2024-01-30T08:44:56;1.55;;;1.20;;
28483;SDS011;15704;48.834;8.736;2024-01-30T08:47:22;1.83;;;1.40;;
28483;SDS011;15704;48.834;8.736;2024-01-30T08:49:49;1.40;;;1.20;;
28483;SDS011;15704;48.834;8.736;2024-01-30T08:52:16;2.15;;;1.50;;
28483;SDS011;15704;48.834;8.736;2024-01-30T08:54:43;1.67;;;1.20;;
28483;SDS011;15704;48.834;8.736;2024-01-30T08:57:10;1.27;;;1.15;;
28483;SDS011;15704;48.834;8.736;2024-01-30T08:59:37;1.80;;;1.40;;
28483;SDS011;15704;48.834;8.736;2024-01-30T09:02:04;1.45;;;1.25;;
28483;SDS011;15704;48.834;8.736;2024-01-30T09:04:38;1.42;;;1.30;;
28483;SDS011;15704;48.834;8.736;2024-01-30T09:07:06;1.40;;;1.25;;
28483;SDS011;15704;48.834;8.736;2024-01-30T09:09:39;2.00;;;1.40;;
28483;SDS011;15704;48.834;8.736;2024-01-30T09:12:07;1.47;;;1.20;;
28483;SDS011;15704;48.834;8.736;2024-01-30T09:14:36;1.88;;;1.15;;
28483;SDS011;15704;48.834;8.736;2024-01-30T09:17:03;1.48;;;1.30;;
28483;SDS011;15704;48.834;8.736;2024-01-30T09:19:30;1.73;;;1.30;;
28483;SDS011;15704;48.834;8.736;2024-01-30T09:21:57;1.55;;;1.20;;
28483;SDS011;15704;48.834;8.736;2024-01-30T09:24:24;1.20;;;1.10;;
28483;SDS011;15704;48.834;8.736;2024-01-30T09:26:52;1.55;;;1.40;;
28483;SDS011;15704;48.834;8.736;2024-01-30T09:29:19;1.73;;;1.33;;
28483;SDS011;15704;48.834;8.736;2024-01-30T09:31:49;1.10;;;1.00;;
28483;SDS011;15704;48.834;8.736;2024-01-30T09:34:15;1.50;;;1.25;;
28483;SDS011;15704;48.834;8.736;2024-01-30T09:36:42;1.20;;;1.10;;
28483;SDS011;15704;48.834;8.736;2024-01-30T09:39:09;1.15;;;1.05;;
28483;SDS011;15704;48.834;8.736;2024-01-30T09:41:44;1.30;;;1.20;;
28483;SDS011;15704;48.834;8.736;2024-01-30T09:44:15;1.30;;;1.13;;
28483;SDS011;15704;48.834;8.736;2024-01-30T09:46:43;1.23;;;0.93;;
28483;SDS011;15704;48.834;8.736;2024-01-30T09:49:13;1.83;;;1.40;;
28483;SDS011;15704;48.834;8.736;2024-01-30T09:51:42;1.17;;;1.08;;
28483;SDS011;15704;48.834;8.736;2024-01-30T09:54:11;1.20;;;1.10;;
28483;SDS011;15704;48.834;8.736;2024-01-30T09:56:41;1.52;;;1.30;;
28483;SDS011;15704;48.834;8.736;2024-01-30T09:59:08;1.67;;;1.27;;
28483;SDS011;15704;48.834;8.736;2024-01-30T10:01:36;1.30;;;1.15;;
28483;SDS011;15704;48.834;8.736;2024-01-30T10:04:07;1.50;;;1.13;;
28483;SDS011;15704;48.834;8.736;2024-01-30T10:06:34;1.10;;;1.00;;
28483;SDS011;15704;48.834;8.736;2024-01-30T10:09:01;1.30;;;1.20;;
28483;SDS011;15704;48.834;8.736;2024-01-30T10:11:28;1.08;;;1.00;;
28483;SDS011;15704;48.834;8.736;2024-01-30T10:13:55;1.23;;;1.00;;
28483;SDS011;15704;48.834;8.736;2024-01-30T10:16:22;1.35;;;1.15;;
28483;SDS011;15704;48.834;8.736;2024-01-30T10:18:48;1.63;;;1.30;;
28483;SDS011;15704;48.834;8.736;2024-01-30T10:21:15;1.60;;;1.20;;
28483;SDS011;15704;48.834;8.736;2024-01-30T10:23:43;1.05;;;0.90;;
28483;SDS011;15704;48.834;8.736;2024-01-30T10:26:11;1.27;;;1.15;;
28483;SDS011;15704;48.834;8.736;2024-01-30T10:28:37;1.55;;;1.30;;
28483;SDS011;15704;48.834;8.736;2024-01-30T10:31:04;1.63;;;1.20;;
28483;SDS011;15704;48.834;8.736;2024-01-30T10:33:32;1.30;;;1.00;;
28483;SDS011;15704;48.834;8.736;2024-01-30T10:36:00;1.25;;;1.15;;
28483;SDS011;15704;48.834;8.736;2024-01-30T10:38:29;1.50;;;1.23;;
28483;SDS011;15704;48.834;8.736;2024-01-30T10:40:57;3.90;;;1.25;;
28483;SDS011;15704;48.834;8.736;2024-01-30T10:43:32;1.65;;;1.25;;
28483;SDS011;15704;48.834;8.736;2024-01-30T10:48:42;1.13;;;1.02;;
28483;SDS011;15704;48.834;8.736;2024-01-30T10:51:15;1.13;;;1.02;;
28483;SDS011;15704;48.834;8.736;2024-01-30T10:53:43;1.20;;;0.98;;
28483;SDS011;15704;48.834;8.736;2024-01-30T10:56:13;1.13;;;1.00;;
28483;SDS011;15704;48.834;8.736;2024-01-30T10:58:42;1.08;;;0.90;;
28483;SDS011;15704;48.834;8.736;2024-01-30T11:01:09;0.95;;;0.85;;
28483;SDS011;15704;48.834;8.736;2024-01-30T11:03:36;1.02;;;0.93;;
28483;SDS011;15704;48.834;8.736;2024-01-30T11:06:03;0.85;;;0.77;;
28483;SDS011;15704;48.834;8.736;2024-01-30T11:08:33;1.00;;;0.95;;
28483;SDS011;15704;48.834;8.736;2024-01-30T11:11:00;1.50;;;1.20;;
28483;SDS011;15704;48.834;8.736;2024-01-30T11:13:28;2.05;;;1.15;;
28483;SDS011;15704;48.834;8.736;2024-01-30T11:16:03;1.15;;;1.05;;
28483;SDS011;15704;48.834;8.736;2024-01-30T11:18:32;1.52;;;1.08;;
28483;SDS011;15704;48.834;8.736;2024-01-30T11:21:01;1.27;;;1.17;;
28483;SDS011;15704;48.834;8.736;2024-01-30T11:23:30;1.02;;;0.93;;
28483;SDS011;15704;48.834;8.736;2024-01-30T11:26:00;0.80;;;0.80;;
28483;SDS011;15704;48.834;8.736;2024-01-30T11:28:31;1.50;;;1.15;;
28483;SDS011;15704;48.834;8.736;2024-01-30T11:31:04;1.38;;;1.27;;
28483;SDS011;15704;48.834;8.736;2024-01-30T11:33:33;1.48;;;1.10;;
28483;SDS011;15704;48.834;8.736;2024-01-30T11:36:01;1.55;;;1.05;;
28483;SDS011;15704;48.834;8.736;2024-01-30T11:38:29;1.00;;;0.90;;
28483;SDS011;15704;48.834;8.736;2024-01-30T11:40:56;1.20;;;1.10;;
28483;SDS011;15704;48.834;8.736;2024-01-30T11:43:23;1.00;;;0.90;;
28483;SDS011;15704;48.834;8.736;2024-01-30T11:45:51;1.08;;;0.98;;
28483;SDS011;15704;48.834;8.736;2024-01-30T11:48:18;1.10;;;1.00;;
28483;SDS011;15704;48.834;8.736;2024-01-30T11:50:45;1.08;;;0.98;;
28483;SDS011;15704;48.834;8.736;2024-01-30T11:53:13;1.30;;;1.02;;
28483;SDS011;15704;48.834;8.736;2024-01-30T11:55:40;1.13;;;0.90;;
28483;SDS011;15704;48.834;8.736;2024-01-30T11:58:07;1.35;;;1.13;;
28483;SDS011;15704;48.834;8.736;2024-01-30T12:00:34;1.95;;;1.10;;
28483;SDS011;15704;48.834;8.736;2024-01-30T12:03:02;1.05;;;0.95;;
28483;SDS011;15704;48.834;8.736;2024-01-30T12:05:30;1.25;;;1.00;;
28483;SDS011;15704;48.834;8.736;2024-01-30T12:07:58;1.45;;;1.25;;
28483;SDS011;15704;48.834;8.736;2024-01-30T12:10:27;0.85;;;0.80;;
28483;SDS011;15704;48.834;8.736;2024-01-30T12:12:54;1.20;;;0.80;;
28483;SDS011;15704;48.834;8.736;2024-01-30T12:15:22;1.13;;;1.02;;
28483;SDS011;15704;48.834;8.736;2024-01-30T12:17:49;1.17;;;0.80;;
28483;SDS011;15704;48.834;8.736;2024-01-30T12:20:19;1.13;;;1.00;;
28483;SDS011;15704;48.834;8.736;2024-01-30T12:25:20;0.70;;;0.70;;
28483;SDS011;15704;48.834;8.736;2024-01-30T12:27:48;1.98;;;1.20;;
28483;SDS011;15704;48.834;8.736;2024-01-30T12:30:19;1.17;;;1.08;;
28483;SDS011;15704;48.834;8.736;2024-01-30T12:32:49;1.27;;;0.90;;
28483;SDS011;15704;48.834;8.736;2024-01-30T12:35:18;1.00;;;0.90;;
28483;SDS011;15704;48.834;8.736;2024-01-30T12:37:47;1.67;;;1.20;;
28483;SDS011;15704;48.834;8.736;2024-01-30T12:40:14;1.20;;;1.02;;
28483;SDS011;15704;48.834;8.736;2024-01-30T12:42:42;0.98;;;0.88;;
28483;SDS011;15704;48.834;8.736;2024-01-30T12:45:13;2.88;;;1.00;;
28483;SDS011;15704;48.834;8.736;2024-01-30T12:47:41;1.02;;;0.90;;
28483;SDS011;15704;48.834;8.736;2024-01-30T12:50:08;1.25;;;1.00;;
28483;SDS011;15704;48.834;8.736;2024-01-30T12:52:36;1.00;;;0.90;;
28483;SDS011;15704;48.834;8.736;2024-01-30T12:55:03;1.00;;;0.90;;
28483;SDS011;15704;48.834;8.736;2024-01-30T12:57:30;0.90;;;0.85;;
28483;SDS011;15704;48.834;8.736;2024-01-30T12:59:57;1.23;;;0.90;;
28483;SDS011;15704;48.834;8.736;2024-01-30T13:02:24;1.13;;;0.93;;
28483;SDS011;15704;48.834;8.736;2024-01-30T13:04:52;1.15;;;1.00;;
28483;SDS011;15704;48.834;8.736;2024-01-30T13:07:19;2.17;;;0.95;;
28483;SDS011;15704;48.834;8.736;2024-01-30T13:09:47;3.20;;;1.30;;
28483;SDS011;15704;48.834;8.736;2024-01-30T13:12:14;4.70;;;1.23;;
28483;SDS011;15704;48.834;8.736;2024-01-30T13:14:40;2.38;;;0.98;;
28483;SDS011;15704;48.834;8.736;2024-01-30T13:17:07;2.28;;;1.20;;
28483;SDS011;15704;48.834;8.736;2024-01-30T13:19:34;1.23;;;1.13;;
28483;SDS011;15704;48.834;8.736;2024-01-30T13:22:01;1.63;;;1.10;;
28483;SDS011;15704;48.834;8.736;2024-01-30T13:24:28;4.55;;;1.50;;
28483;SDS011;15704;48.834;8.736;2024-01-30T13:26:54;4.88;;;1.50;;
28483;SDS011;15704;48.834;8.736;2024-01-30T13:29:21;5.20;;;1.40;;
28483;SDS011;15704;48.834;8.736;2024-01-30T13:31:48;5.55;;;1.80;;
28483;SDS011;15704;48.834;8.736;2024-01-30T13:34:15;3.00;;;1.58;;
28483;SDS011;15704;48.834;8.736;2024-01-30T13:36:42;7.22;;;1.80;;
28483;SDS011;15704;48.834;8.736;2024-01-30T13:39:09;3.65;;;1.60;;
28483;SDS011;15704;48.834;8.736;2024-01-30T13:41:37;4.78;;;1.92;;
28483;SDS011;15704;48.834;8.736;2024-01-30T13:44:04;6.85;;;2.05;;
28483;SDS011;15704;48.834;8.736;2024-01-30T13:46:31;3.78;;;1.73;;
28483;SDS011;15704;48.834;8.736;2024-01-30T13:48:58;3.58;;;1.27;;
28483;SDS011;15704;48.834;8.736;2024-01-30T13:51:26;2.83;;;1.30;;
28483;SDS011;15704;48.834;8.736;2024-01-30T13:53:53;2.63;;;1.40;;
28483;SDS011;15704;48.834;8.736;2024-01-30T13:56:20;3.40;;;1.40;;
28483;SDS011;15704;48.834;8.736;2024-01-30T13:58:50;1.50;;;1.20;;
28483;SDS011;15704;48.834;8.736;2024-01-30T14:01:17;3.40;;;1.45;;
28483;SDS011;15704;48.834;8.736;2024-01-30T14:03:44;4.18;;;1.52;;
28483;SDS011;15704;48.834;8.736;2024-01-30T14:06:11;2.10;;;1.25;;
28483;SDS011;15704;48.834;8.736;2024-01-30T14:08:38;2.78;;;1.52;;
28483;SDS011;15704;48.834;8.736;2024-01-30T14:11:08;2.47;;;1.23;;
28483;SDS011;15704;48.834;8.736;2024-01-30T14:13:36;2.92;;;1.30;;
28483;SDS011;15704;48.834;8.736;2024-01-30T14:16:02;2.80;;;1.17;;
28483;SDS011;15704;48.834;8.736;2024-01-30T14:18:32;2.03;;;1.08;;
28483;SDS011;15704;48.834;8.736;2024-01-30T14:20:59;2.83;;;1.50;;
28483;SDS011;15704;48.834;8.736;2024-01-30T14:23:26;2.92;;;1.30;;
28483;SDS011;15704;48.834;8.736;2024-01-30T14:25:53;4.32;;;1.35;;
28483;SDS011;15704;48.834;8.736;2024-01-30T14:28:19;4.47;;;1.35;;
28483;SDS011;15704;48.834;8.736;2024-01-30T14:30:46;1.60;;;1.00;;
28483;SDS011;15704;48.834;8.736;2024-01-30T14:33:14;4.63;;;1.58;;
28483;SDS011;15704;48.834;8.736;2024-01-30T14:35:41;2.55;;;1.30;;
28483;SDS011;15704;48.834;8.736;2024-01-30T14:38:08;2.45;;;1.40;;
28483;SDS011;15704;48.834;8.736;2024-01-30T14:40:38;1.42;;;1.02;;
28483;SDS011;15704;48.834;8.736;2024-01-30T14:43:05;2.38;;;1.50;;
28483;SDS011;15704;48.834;8.736;2024-01-30T14:45:32;2.15;;;1.30;;
28483;SDS011;15704;48.834;8.736;2024-01-30T14:47:59;1.95;;;1.42;;
28483;SDS011;15704;48.834;8.736;2024-01-30T14:50:26;2.97;;;1.20;;
28483;SDS011;15704;48.834;8.736;2024-01-30T14:52:56;1.58;;;1.20;;
28483;SDS011;15704;48.834;8.736;2024-01-30T14:55:22;4.43;;;1.48;;